Time;durP1;ratioP1;P1;durP2;ratioP2;P2;SDS_P1;SDS_P2;PMS_P1;PMS_P2;Temp;Humidity;BMP_temperature;BMP_pressure;BME280_temperature;BME280_humidity;BME280_pressure;Samples;Min_cycle;Max_cycle;Signal;HPM_P1;HPM_P2
2021/05/27 00:00:42;;;;;;;1.00;0.90;;;12.50;1.00;;;;;;5110812;28;20466;-56
2021/05/27 00:03:08;;;;;;;1.90;1.07;;;12.60;1.00;;;;;;5110065;28;20785;-57
2021/05/27 00:05:33;;;;;;;1.17;0.80;;;12.70;1.00;;;;;;5092367;28;20445;-56
2021/05/27 00:07:59;;;;;;;1.03;0.87;;;12.70;1.00;;;;;;5110938;28;20790;-57
2021/05/27 00:10:27;;;;;;;1.07;1.00;;;12.70;1.00;;;;;;5111103;28;20221;-56
2021/05/27 00:12:54;;;;;;;1.30;1.10;;;12.50;1.00;;;;;;5110898;28;20791;-56
2021/05/27 00:15:22;;;;;;;1.20;1.00;;;12.50;1.00;;;;;;5110977;28;20552;-56
2021/05/27 00:17:48;;;;;;;0.97;0.97;;;12.40;1.00;;;;;;5092346;28;20447;-56
2021/05/27 00:20:15;;;;;;;1.27;0.90;;;12.60;1.00;;;;;;5111392;28;20878;-56
2021/05/27 00:22:40;;;;;;;1.80;1.30;;;12.50;1.00;;;;;;5105228;28;20264;-57
2021/05/27 00:25:08;;;;;;;0.70;0.70;;;12.60;1.00;;;;;;5110682;28;20522;-56
2021/05/27 00:27:34;;;;;;;0.93;0.90;;;12.70;1.00;;;;;;5091731;28;20192;-56
2021/05/27 00:29:59;;;;;;;1.20;1.10;;;12.70;1.00;;;;;;5111341;28;20413;-56
2021/05/27 00:32:25;;;;;;;3.60;1.20;;;12.80;1.00;;;;;;5092213;28;20569;-56
2021/05/27 00:34:51;;;;;;;2.87;1.63;;;12.70;1.00;;;;;;5109586;28;20231;-58
2021/05/27 00:37:17;;;;;;;1.83;1.57;;;12.70;1.00;;;;;;5110360;28;20571;-56
2021/05/27 00:39:43;;;;;;;2.47;1.60;;;12.60;1.00;;;;;;5111223;28;20671;-56
2021/05/27 00:42:08;;;;;;;2.10;1.40;;;12.60;1.00;;;;;;5110931;28;20460;-56
2021/05/27 00:44:34;;;;;;;3.20;1.70;;;12.40;1.00;;;;;;5110985;28;20210;-56
2021/05/27 00:47:01;;;;;;;2.33;1.57;;;12.40;1.00;;;;;;5110852;28;20185;-56
2021/05/27 00:49:27;;;;;;;3.00;1.53;;;12.20;1.00;;;;;;5110576;28;20186;-56
2021/05/27 00:51:53;;;;;;;3.50;1.70;;;12.20;1.00;;;;;;5110576;28;20442;-56
2021/05/27 00:54:20;;;;;;;1.80;1.60;;;12.10;1.00;;;;;;5110362;28;20461;-56
2021/05/27 00:56:48;;;;;;;1.20;1.10;;;12.30;1.00;;;;;;5110583;28;20470;-57
2021/05/27 00:59:14;;;;;;;1.63;1.50;;;12.40;1.00;;;;;;5110588;28;20431;-56
2021/05/27 01:01:40;;;;;;;1.43;1.33;;;12.30;1.00;;;;;;5110700;28;20446;-57
2021/05/27 01:04:06;;;;;;;4.17;1.33;;;12.10;1.00;;;;;;5108639;28;20454;-56
2021/05/27 01:06:32;;;;;;;1.20;1.10;;;12.10;1.00;;;;;;5107827;28;20371;-57
2021/05/27 01:08:58;;;;;;;1.00;0.90;;;11.90;1.00;;;;;;5110726;28;20534;-56
2021/05/27 01:11:24;;;;;;;1.53;1.43;;;11.90;1.00;;;;;;5110408;28;20454;-56
2021/05/27 01:13:50;;;;;;;2.20;1.40;;;12.00;1.00;;;;;;5110566;28;20474;-56
2021/05/27 01:16:21;;;;;;;1.90;1.30;;;12.00;1.00;;;;;;5110507;28;20557;-57
2021/05/27 01:18:47;;;;;;;1.40;1.30;;;11.90;1.00;;;;;;5109333;28;20192;-56
2021/05/27 01:21:13;;;;;;;1.77;1.40;;;11.80;1.00;;;;;;5109716;28;20438;-56
2021/05/27 01:23:39;;;;;;;1.80;1.40;;;12.00;1.00;;;;;;5092247;28;20566;-56
2021/05/27 01:26:09;;;;;;;1.70;1.60;;;12.10;1.00;;;;;;5109601;28;20446;-56
2021/05/27 01:28:35;;;;;;;1.60;1.50;;;12.10;1.00;;;;;;5102338;28;20782;-57
2021/05/27 01:31:03;;;;;;;2.53;2.33;;;12.00;1.00;;;;;;5091397;28;20507;-56
2021/05/27 01:33:29;;;;;;;4.30;1.53;;;12.10;1.00;;;;;;5110476;28;20446;-56
2021/05/27 01:35:56;;;;;;;1.93;1.60;;;12.00;1.00;;;;;;5111653;28;20557;-57
2021/05/27 01:38:24;;;;;;;1.50;1.40;;;12.10;1.00;;;;;;5113897;28;20435;-56
2021/05/27 01:40:51;;;;;;;1.50;1.40;;;12.10;1.00;;;;;;5113565;28;20968;-57
2021/05/27 01:43:18;;;;;;;3.07;2.07;;;11.90;1.00;;;;;;5114083;28;20915;-56
2021/05/27 01:45:44;;;;;;;2.37;1.60;;;11.80;1.00;;;;;;5113650;28;20883;-56
2021/05/27 01:48:09;;;;;;;1.50;1.40;;;11.80;1.00;;;;;;5113970;28;20534;-57
2021/05/27 01:50:38;;;;;;;2.87;1.70;;;11.90;1.00;;;;;;5113428;28;20684;-56
2021/05/27 01:53:08;;;;;;;1.80;1.70;;;12.00;1.00;;;;;;5113866;28;20526;-56
2021/05/27 01:55:34;;;;;;;1.53;1.43;;;11.80;1.00;;;;;;5113324;28;20461;-56
2021/05/27 01:58:00;;;;;;;3.57;3.27;;;11.80;1.00;;;;;;5113344;28;20466;-56
2021/05/27 02:00:27;;;;;;;2.03;1.83;;;11.80;1.00;;;;;;5113734;28;20932;-56
2021/05/27 02:02:54;;;;;;;2.40;2.20;;;11.80;1.00;;;;;;5113677;28;20485;-57
2021/05/27 02:05:19;;;;;;;2.20;1.70;;;11.70;1.00;;;;;;5112743;28;20770;-57
2021/05/27 02:07:45;;;;;;;2.30;2.00;;;11.70;1.00;;;;;;5113888;28;20435;-56
2021/05/27 02:10:11;;;;;;;1.50;1.40;;;11.60;1.00;;;;;;5113309;28;20181;-56
2021/05/27 02:12:37;;;;;;;2.17;1.97;;;11.70;1.00;;;;;;5113884;28;20231;-56
2021/05/27 02:15:05;;;;;;;2.27;2.07;;;11.60;1.00;;;;;;5112913;28;20973;-55
2021/05/27 02:17:30;;;;;;;1.63;1.53;;;11.70;1.00;;;;;;5113617;28;20223;-57
2021/05/27 02:19:56;;;;;;;2.33;2.13;;;11.70;1.00;;;;;;5112730;28;20434;-56
2021/05/27 02:22:21;;;;;;;1.90;1.80;;;11.70;1.00;;;;;;5113590;28;20543;-56
2021/05/27 02:24:47;;;;;;;2.60;2.40;;;11.60;1.00;;;;;;5111146;28;20180;-56
2021/05/27 02:27:12;;;;;;;2.53;2.33;;;11.80;1.00;;;;;;5112908;28;20652;-56
2021/05/27 02:29:38;;;;;;;2.50;2.30;;;11.70;1.00;;;;;;5113259;28;20212;-56
2021/05/27 02:32:04;;;;;;;2.83;2.53;;;11.50;1.00;;;;;;5112796;28;20181;-56
2021/05/27 02:34:29;;;;;;;3.10;2.80;;;11.60;1.00;;;;;;5113104;28;20216;-56
2021/05/27 02:36:55;;;;;;;2.97;2.67;;;11.70;1.00;;;;;;5112752;28;20228;-57
2021/05/27 02:39:22;;;;;;;3.27;2.70;;;11.70;1.00;;;;;;5112553;28;20201;-56
2021/05/27 02:41:47;;;;;;;3.20;2.63;;;11.60;1.00;;;;;;5112907;28;20789;-57
2021/05/27 02:44:13;;;;;;;3.00;2.80;;;11.70;1.00;;;;;;5112927;28;20182;-56
2021/05/27 02:46:39;;;;;;;2.80;2.60;;;11.70;1.00;;;;;;5112810;28;20264;-56
2021/05/27 02:49:06;;;;;;;3.30;2.67;;;11.70;1.00;;;;;;5111761;28;20191;-56
2021/05/27 02:51:31;;;;;;;3.17;2.70;;;11.60;1.00;;;;;;5112233;28;20492;-56
2021/05/27 02:53:58;;;;;;;2.87;2.63;;;11.50;1.00;;;;;;5112407;28;20439;-57
2021/05/27 02:56:23;;;;;;;3.07;2.80;;;11.50;1.00;;;;;;5111710;28;20264;-57
2021/05/27 02:58:49;;;;;;;3.13;2.77;;;11.60;1.00;;;;;;5112784;28;20447;-57
2021/05/27 03:01:15;;;;;;;2.97;2.77;;;11.60;1.00;;;;;;5112432;28;20184;-56
2021/05/27 03:03:40;;;;;;;4.43;3.20;;;11.60;1.00;;;;;;5111972;28;20185;-56
2021/05/27 03:06:06;;;;;;;3.77;3.23;;;11.70;1.00;;;;;;5112393;28;20189;-55
2021/05/27 03:08:31;;;;;;;3.80;3.03;;;11.60;1.00;;;;;;5112509;28;20193;-56
2021/05/27 03:10:57;;;;;;;3.50;2.80;;;11.80;1.00;;;;;;5112447;28;20188;-57
2021/05/27 03:13:23;;;;;;;3.17;2.87;;;11.70;1.00;;;;;;5112207;28;20207;-56
2021/05/27 03:15:48;;;;;;;3.27;2.97;;;11.90;1.00;;;;;;5111644;28;20548;-57
2021/05/27 03:18:14;;;;;;;3.20;2.93;;;12.00;1.00;;;;;;5111888;28;20634;-56
2021/05/27 03:20:40;;;;;;;2.93;2.73;;;12.10;1.00;;;;;;5111613;28;20182;-56
2021/05/27 03:23:06;;;;;;;3.33;3.03;;;12.00;1.00;;;;;;5111925;28;20174;-56
2021/05/27 03:25:33;;;;;;;2.70;2.50;;;12.10;1.00;;;;;;5111414;28;20809;-55
2021/05/27 03:27:59;;;;;;;5.23;2.80;;;12.10;1.00;;;;;;5111861;28;20445;-56
2021/05/27 03:30:25;;;;;;;7.90;2.97;;;12.20;1.00;;;;;;5112080;28;20775;-56
2021/05/27 03:32:51;;;;;;;3.73;2.90;;;12.30;1.00;;;;;;5110410;28;20223;-56
2021/05/27 03:35:17;;;;;;;3.10;2.83;;;12.10;1.00;;;;;;5093168;28;20528;-56
2021/05/27 03:37:43;;;;;;;3.07;2.30;;;12.80;1.00;;;;;;5111473;28;20498;-55
2021/05/27 03:40:13;;;;;;;3.80;3.50;;;12.00;1.00;;;;;;5102716;28;20471;-56
2021/05/27 03:42:50;;;;;;;5.83;3.80;;;12.00;1.00;;;;;;5111618;28;20177;-56
2021/05/27 03:45:21;;;;;;;3.50;3.20;;;12.00;1.00;;;;;;5109618;28;20469;-55
2021/05/27 03:47:47;;;;;;;3.37;3.07;;;12.10;1.00;;;;;;5107039;28;20460;-56
2021/05/27 03:50:15;;;;;;;3.80;3.33;;;12.00;1.00;;;;;;5110932;28;20434;-56
2021/05/27 03:52:41;;;;;;;3.33;3.10;;;12.20;1.00;;;;;;5110953;28;20179;-56
2021/05/27 03:55:09;;;;;;;3.73;3.40;;;12.30;1.00;;;;;;5109695;28;20442;-57
2021/05/27 03:57:34;;;;;;;3.30;3.00;;;12.40;1.00;;;;;;5109959;28;20794;-57
2021/05/27 04:02:47;;;;;;;3.60;3.30;;;12.40;1.00;;;;;;5110975;28;20673;-57
2021/05/27 04:07:58;;;;;;;3.40;3.10;;;12.40;1.00;;;;;;5110974;28;20475;-58
2021/05/27 04:10:24;;;;;;;3.40;3.10;;;12.60;1.00;;;;;;5111626;28;20830;-55
2021/05/27 04:12:50;;;;;;;2.90;2.70;;;12.70;1.00;;;;;;5111158;28;20440;-56
2021/05/27 04:15:22;;;;;;;3.00;2.80;;;12.80;1.00;;;;;;5111049;28;20924;-56
2021/05/27 04:17:52;;;;;;;3.40;2.67;;;12.80;1.00;;;;;;5093859;28;20226;-55
2021/05/27 04:20:17;;;;;;;3.10;2.80;;;12.80;1.00;;;;;;5110893;28;20507;-57
2021/05/27 04:22:44;;;;;;;3.47;2.73;;;12.70;1.00;;;;;;5110587;28;20521;-57
2021/05/27 04:25:11;;;;;;;3.40;3.10;;;12.70;1.00;;;;;;5110733;28;20313;-57
2021/05/27 04:27:37;;;;;;;3.37;3.10;;;12.80;1.00;;;;;;5110924;28;20488;-56
2021/05/27 04:30:17;;;;;;;3.73;3.43;;;12.80;1.00;;;;;;5110797;28;20537;-56
2021/05/27 04:35:21;;;;;;;3.63;3.10;;;12.80;1.00;;;;;;5110373;28;20454;-55
2021/05/27 04:37:47;;;;;;;3.00;2.70;;;12.90;1.00;;;;;;5097976;28;20476;-56
2021/05/27 04:40:13;;;;;;;3.57;2.87;;;13.10;1.00;;;;;;5103067;28;20969;-57
2021/05/27 04:42:39;;;;;;;2.80;2.60;;;13.10;1.00;;;;;;5109392;28;20193;-56
2021/05/27 04:45:05;;;;;;;3.80;3.50;;;13.30;1.00;;;;;;5110543;28;20430;-57
2021/05/27 04:47:31;;;;;;;3.07;2.73;;;13.30;1.00;;;;;;5110348;28;20188;-57
2021/05/27 04:49:56;;;;;;;4.80;3.60;;;13.30;1.00;;;;;;5110328;28;20443;-56
2021/05/27 04:52:22;;;;;;;3.47;2.93;;;13.40;1.00;;;;;;5108856;28;20193;-57
2021/05/27 04:54:47;;;;;;;3.00;2.70;;;13.30;1.00;;;;;;5110517;28;20189;-57
2021/05/27 04:57:13;;;;;;;2.93;2.60;;;13.40;1.00;;;;;;5109447;28;20209;-55
2021/05/27 04:59:39;;;;;;;3.30;2.90;;;;;;;;;;5110336;28;20619;-56
2021/05/27 05:02:04;;;;;;;3.27;2.97;;;13.50;1.00;;;;;;5109764;28;20187;-56
2021/05/27 05:04:30;;;;;;;3.20;2.87;;;13.50;1.00;;;;;;5110098;28;20451;-56
2021/05/27 05:06:55;;;;;;;3.77;3.00;;;13.50;1.00;;;;;;5103071;28;20194;-56
2021/05/27 05:09:21;;;;;;;3.57;2.50;;;13.50;1.00;;;;;;5109031;28;20197;-57
2021/05/27 05:11:46;;;;;;;3.67;3.10;;;13.50;1.00;;;;;;5113115;28;20184;-56
2021/05/27 05:14:12;;;;;;;3.03;2.83;;;13.40;1.00;;;;;;5095749;28;20243;-56
2021/05/27 05:16:37;;;;;;;2.90;2.70;;;13.50;1.00;;;;;;5113817;28;20389;-56
2021/05/27 05:19:03;;;;;;;3.10;2.80;;;13.50;1.00;;;;;;5113044;28;20189;-56
2021/05/27 05:21:28;;;;;;;3.37;3.07;;;13.50;1.00;;;;;;5111510;28;20180;-62
2021/05/27 05:23:54;;;;;;;3.40;3.20;;;13.60;1.00;;;;;;5114117;28;20551;-56
2021/05/27 05:26:20;;;;;;;3.70;2.60;;;13.50;1.00;;;;;;5113905;28;20611;-57
2021/05/27 05:28:45;;;;;;;4.50;3.20;;;13.60;1.00;;;;;;5113341;28;20178;-57
2021/05/27 05:31:11;;;;;;;5.10;3.13;;;13.50;1.00;;;;;;5113920;28;20190;-56
2021/05/27 05:33:36;;;;;;;3.43;3.10;;;13.50;1.00;;;;;;5114018;28;20182;-56
2021/05/27 05:36:02;;;;;;;3.77;3.47;;;13.50;1.00;;;;;;5112758;28;20220;-56
2021/05/27 05:38:27;;;;;;;3.83;3.37;;;13.50;1.00;;;;;;5113306;28;20174;-55
2021/05/27 05:40:53;;;;;;;3.87;3.47;;;13.50;1.00;;;;;;5113387;28;20185;-56
2021/05/27 05:43:18;;;;;;;3.70;3.40;;;13.30;1.00;;;;;;5113972;28;20188;-56
2021/05/27 05:45:44;;;;;;;5.03;3.63;;;13.40;1.00;;;;;;5110975;28;20197;-57
2021/05/27 05:48:09;;;;;;;3.80;3.50;;;13.40;1.00;;;;;;5113286;28;20199;-55
2021/05/27 05:50:52;;;;;;;4.20;3.70;;;13.30;1.00;;;;;;5113130;28;20182;-56
2021/05/27 05:53:22;;;;;;;4.47;4.13;;;13.40;1.00;;;;;;5095288;28;20189;-56
2021/05/27 05:55:50;;;;;;;4.80;3.47;;;13.50;1.00;;;;;;5112842;28;20935;-55
2021/05/27 05:58:16;;;;;;;4.63;3.60;;;13.40;1.00;;;;;;5113193;28;20937;-55
2021/05/27 06:00:42;;;;;;;4.77;3.30;;;13.50;1.00;;;;;;5112918;28;20573;-56
2021/05/27 06:03:07;;;;;;;7.83;3.90;;;13.40;1.00;;;;;;5113208;28;20431;-55
2021/05/27 06:05:33;;;;;;;3.80;3.50;;;13.40;1.00;;;;;;5113183;28;20189;-56
2021/05/27 06:07:59;;;;;;;5.17;3.40;;;13.50;1.00;;;;;;5112460;28;20257;-56
2021/05/27 06:10:25;;;;;;;3.90;3.43;;;13.60;1.00;;;;;;5112626;28;20185;-56
2021/05/27 06:12:52;;;;;;;3.37;3.07;;;13.60;1.00;;;;;;5112746;28;20180;-55
2021/05/27 06:15:21;;;;;;;4.07;3.67;;;13.80;1.00;;;;;;5112284;28;20482;-56
2021/05/27 06:17:54;;;;;;;4.63;3.87;;;14.00;1.00;;;;;;5093773;28;20897;-57
2021/05/27 06:20:21;;;;;;;8.00;3.73;;;14.20;1.00;;;;;;5093939;28;20440;-56
2021/05/27 06:22:48;;;;;;;3.47;3.17;;;14.20;1.00;;;;;;5112581;28;20967;-56
2021/05/27 06:25:14;;;;;;;4.63;3.67;;;14.20;1.00;;;;;;5110525;28;20485;-57
2021/05/27 06:27:41;;;;;;;4.20;3.80;;;14.20;1.00;;;;;;5112463;28;20475;-56
2021/05/27 06:30:08;;;;;;;3.53;3.23;;;14.10;1.00;;;;;;5094031;28;20472;-56
2021/05/27 06:32:37;;;;;;;5.30;3.90;;;14.20;1.00;;;;;;5112313;28;21043;-56
2021/05/27 06:35:08;;;;;;;4.10;3.20;;;14.40;1.00;;;;;;5109368;28;20466;-57
2021/05/27 06:37:38;;;;;;;6.17;3.50;;;14.70;1.00;;;;;;5112490;28;20825;-56
2021/05/27 06:40:06;;;;;;;4.00;3.00;;;14.90;1.00;;;;;;5112124;28;20508;-56
2021/05/27 06:42:31;;;;;;;3.77;3.47;;;15.10;1.00;;;;;;5112355;28;20440;-56
2021/05/27 06:44:57;;;;;;;3.33;3.03;;;15.30;1.00;;;;;;5111194;28;20492;-57
2021/05/27 06:47:23;;;;;;;7.13;3.30;;;15.50;1.00;;;;;;5112670;28;20201;-57
2021/05/27 06:49:48;;;;;;;3.20;2.90;;;15.50;1.00;;;;;;5110883;28;20178;-57
2021/05/27 06:52:14;;;;;;;6.43;3.00;;;15.50;1.00;;;;;;5111937;28;20600;-57
2021/05/27 06:54:39;;;;;;;3.40;3.17;;;15.70;1.00;;;;;;5111885;28;20182;-56
2021/05/27 06:57:05;;;;;;;3.90;3.53;;;15.60;1.00;;;;;;5111956;28;20210;-57
2021/05/27 06:59:31;;;;;;;4.00;2.87;;;15.30;1.00;;;;;;5111790;28;20231;-57
2021/05/27 07:01:56;;;;;;;3.63;3.33;;;15.10;1.00;;;;;;5111972;28;20211;-56
2021/05/27 07:04:22;;;;;;;3.00;2.80;;;15.10;1.00;;;;;;5111540;28;20189;-56
2021/05/27 07:06:47;;;;;;;3.03;2.70;;;15.30;1.00;;;;;;5111732;28;20178;-58
2021/05/27 07:09:14;;;;;;;3.00;2.80;;;15.40;1.00;;;;;;5111995;28;20184;-56
2021/05/27 07:11:39;;;;;;;5.50;2.80;;;15.60;1.00;;;;;;5084451;28;20647;-57
2021/05/27 07:14:05;;;;;;;3.50;3.17;;;15.60;1.00;;;;;;5099315;28;20432;-56
2021/05/27 07:16:32;;;;;;;2.90;2.70;;;15.50;1.00;;;;;;5110826;28;20541;-57
2021/05/27 07:18:58;;;;;;;3.70;3.40;;;15.50;1.00;;;;;;5110154;28;20648;-55
2021/05/27 07:21:23;;;;;;;3.40;3.10;;;15.50;1.00;;;;;;5109497;28;20437;-57
2021/05/27 07:23:49;;;;;;;3.70;3.40;;;15.40;1.00;;;;;;5093489;28;20182;-57
2021/05/27 07:26:15;;;;;;;3.80;3.00;;;15.50;1.00;;;;;;5111956;28;20205;-55
2021/05/27 07:28:40;;;;;;;3.37;2.60;;;15.90;1.00;;;;;;5111696;28;20626;-57
2021/05/27 07:31:06;;;;;;;2.60;2.40;;;16.10;1.00;;;;;;5111836;28;20182;-57
2021/05/27 07:33:32;;;;;;;2.70;2.50;;;15.80;1.00;;;;;;5110631;28;20519;-56
2021/05/27 07:35:58;;;;;;;2.60;2.40;;;15.70;1.00;;;;;;5111640;28;20467;-56
2021/05/27 07:38:24;;;;;;;2.77;1.77;;;15.40;1.00;;;;;;5093560;28;20417;-56
2021/05/27 07:40:49;;;;;;;2.27;2.07;;;15.60;1.00;;;;;;5111428;28;20511;-56
2021/05/27 07:43:15;;;;;;;2.20;2.00;;;15.90;1.00;;;;;;5110304;28;20178;-57
2021/05/27 07:45:41;;;;;;;1.80;1.70;;;16.20;1.00;;;;;;5103114;28;20189;-56
2021/05/27 07:48:07;;;;;;;2.10;1.90;;;16.20;1.00;;;;;;5111520;28;20207;-56
2021/05/27 07:50:32;;;;;;;2.30;2.07;;;16.30;1.00;;;;;;5092354;28;20182;-57
2021/05/27 07:52:58;;;;;;;2.00;1.80;;;16.50;1.00;;;;;;5111468;28;20190;-57
2021/05/27 07:55:24;;;;;;;4.10;2.30;;;16.20;1.00;;;;;;5111390;28;20444;-57
2021/05/27 07:57:50;;;;;;;2.50;1.90;;;16.10;1.00;;;;;;5110778;28;20170;-56
2021/05/27 08:00:16;;;;;;;2.30;2.10;;;15.90;1.00;;;;;;5111378;28;20434;-56
2021/05/27 08:02:43;;;;;;;2.20;2.00;;;16.20;1.00;;;;;;5110342;28;20926;-57
2021/05/27 08:05:09;;;;;;;4.50;2.73;;;16.30;1.00;;;;;;5092988;28;20483;-56
2021/05/27 08:07:35;;;;;;;3.23;2.50;;;16.30;1.00;;;;;;5111141;28;20427;-56
2021/05/27 08:10:00;;;;;;;2.27;2.07;;;16.00;1.00;;;;;;5110862;28;21003;-56
2021/05/27 08:12:26;;;;;;;2.07;1.87;;;15.90;1.00;;;;;;5109830;28;20186;-56
2021/05/27 08:14:51;;;;;;;2.50;2.07;;;16.20;1.00;;;;;;5110613;28;20695;-57
2021/05/27 08:17:17;;;;;;;2.17;2.07;;;16.70;1.00;;;;;;5092707;28;20207;-58
2021/05/27 08:19:43;;;;;;;2.50;2.30;;;17.10;1.00;;;;;;5097258;28;20221;-57
2021/05/27 08:22:09;;;;;;;2.73;2.00;;;17.10;1.00;;;;;;5093052;28;20166;-56
2021/05/27 08:24:35;;;;;;;3.00;1.90;;;17.50;1.00;;;;;;5111173;28;20162;-55
2021/05/27 08:27:00;;;;;;;3.20;2.63;;;17.80;1.00;;;;;;5110859;28;20465;-56
2021/05/27 08:29:26;;;;;;;2.40;2.00;;;17.80;1.00;;;;;;5111028;28;20185;-55
2021/05/27 08:31:51;;;;;;;2.30;2.20;;;17.60;1.00;;;;;;5107370;28;20248;-59
2021/05/27 08:34:19;;;;;;;2.60;2.00;;;17.20;1.00;;;;;;5104482;28;20204;-56
2021/05/27 08:36:45;;;;;;;2.33;2.13;;;17.00;1.00;;;;;;5109179;28;20247;-56
2021/05/27 08:39:10;;;;;;;2.40;1.80;;;17.20;1.00;;;;;;5092895;28;20776;-55
2021/05/27 08:41:36;;;;;;;2.00;1.80;;;17.20;1.00;;;;;;5111124;28;20174;-55
2021/05/27 08:44:04;;;;;;;1.90;1.80;;;17.20;1.00;;;;;;5111120;28;20189;-55
2021/05/27 08:46:29;;;;;;;2.83;1.80;;;17.40;1.00;;;;;;5115649;28;20239;-59
2021/05/27 08:48:55;;;;;;;4.60;2.37;;;17.80;1.00;;;;;;5102185;28;20439;-56
2021/05/27 08:51:21;;;;;;;1.83;1.73;;;18.20;1.00;;;;;;5115129;28;20437;-57
2021/05/27 08:53:47;;;;;;;1.70;1.60;;;18.40;1.00;;;;;;5114851;28;20246;-56
2021/05/27 08:56:12;;;;;;;2.00;1.67;;;18.10;1.00;;;;;;5115184;28;20477;-56
2021/05/27 08:58:42;;;;;;;2.40;1.60;;;17.90;1.00;;;;;;5115242;28;20459;-58
2021/05/27 09:01:08;;;;;;;2.20;2.00;;;17.80;1.00;;;;;;5115086;28;20635;-55
2021/05/27 09:03:43;;;;;;;1.70;1.60;;;17.80;1.00;;;;;;5115255;28;20484;-56
2021/05/27 09:06:10;;;;;;;1.80;1.70;;;17.80;1.00;;;;;;5096735;28;20412;-58
2021/05/27 09:08:38;;;;;;;1.97;1.87;;;18.00;1.00;;;;;;5115299;28;20489;-57
2021/05/27 09:11:13;;;;;;;1.83;1.60;;;18.60;1.00;;;;;;5115047;28;20836;-56
2021/05/27 09:13:57;;;;;;;1.70;1.60;;;19.40;1.00;;;;;;5114977;28;20488;-57
2021/05/27 09:16:22;;;;;;;5.10;1.90;;;20.00;1.00;;;;;;5096658;28;20840;-57
2021/05/27 09:18:48;;;;;;;2.30;2.00;;;20.60;1.00;;;;;;5107395;28;20483;-56
2021/05/27 09:21:16;;;;;;;2.87;1.60;;;20.50;1.00;;;;;;5114775;28;20185;-56
2021/05/27 09:23:52;;;;;;;1.80;1.70;;;20.10;1.00;;;;;;5114734;28;20178;-57
2021/05/27 09:26:19;;;;;;;2.00;1.80;;;19.80;1.00;;;;;;5114236;28;20406;-59
2021/05/27 09:28:46;;;;;;;2.43;1.57;;;19.80;1.00;;;;;;5114294;28;20436;-57
2021/05/27 09:31:19;;;;;;;2.20;1.80;;;19.40;1.00;;;;;;5114079;28;20445;-57
2021/05/27 09:33:47;;;;;;;1.97;1.63;;;18.90;1.00;;;;;;5114315;28;20981;-55
2021/05/27 09:36:17;;;;;;;3.33;1.73;;;18.50;1.00;;;;;;5114421;28;20528;-56
2021/05/27 09:38:53;;;;;;;2.23;2.03;;;18.30;1.00;;;;;;5113504;28;20446;-57
2021/05/27 09:41:21;;;;;;;2.40;1.70;;;18.10;1.00;;;;;;5113986;28;20973;-58
2021/05/27 09:43:55;;;;;;;2.13;1.80;;;18.00;1.00;;;;;;5112854;28;20406;-56
2021/05/27 09:46:23;;;;;;;3.90;2.03;;;18.00;1.00;;;;;;5114074;28;20816;-57
2021/05/27 09:49:09;;;;;;;3.43;2.20;;;18.00;1.00;;;;;;5094595;28;20450;-58
2021/05/27 09:51:36;;;;;;;1.90;1.80;;;18.00;1.00;;;;;;5094849;28;20433;-57
2021/05/27 09:54:02;;;;;;;2.00;1.80;;;17.90;1.00;;;;;;5112441;28;21028;-57
2021/05/27 09:56:34;;;;;;;2.60;2.03;;;18.20;1.00;;;;;;5113172;28;20982;-58
2021/05/27 09:58:59;;;;;;;2.53;2.33;;;18.50;1.00;;;;;;5112711;28;20415;-56
2021/05/27 10:01:25;;;;;;;1.80;1.70;;;18.00;1.00;;;;;;5113985;28;20514;-56
2021/05/27 10:03:51;;;;;;;2.53;2.10;;;17.90;1.00;;;;;;5113470;28;20243;-56
2021/05/27 10:06:17;;;;;;;2.37;2.17;;;17.80;1.00;;;;;;5113995;28;20178;-57
2021/05/27 10:08:49;;;;;;;2.60;2.20;;;17.70;1.00;;;;;;5104274;28;20501;-55
2021/05/27 10:11:20;;;;;;;4.80;2.33;;;17.80;1.00;;;;;;5108085;28;20189;-56
2021/05/27 10:13:46;;;;;;;2.03;1.83;;;17.80;1.00;;;;;;5113167;28;20456;-56
2021/05/27 10:16:17;;;;;;;3.63;2.03;;;17.90;1.00;;;;;;5077353;28;20912;-55
2021/05/27 10:18:43;;;;;;;1.90;1.70;;;18.10;1.00;;;;;;5097593;28;20193;-55
2021/05/27 10:21:10;;;;;;;2.63;1.87;;;18.10;1.00;;;;;;5112203;28;20518;-57
2021/05/27 10:23:36;;;;;;;1.90;1.70;;;19.30;1.00;;;;;;5112118;28;20439;-57
2021/05/27 10:26:02;;;;;;;2.00;1.90;;;18.30;1.00;;;;;;5095167;28;20484;-57
2021/05/27 10:28:28;;;;;;;2.53;1.70;;;18.50;1.00;;;;;;5099922;28;20785;-55
2021/05/27 10:30:55;;;;;;;1.70;1.60;;;18.80;1.00;;;;;;5093375;28;20186;-57
2021/05/27 10:33:21;;;;;;;1.67;1.57;;;19.00;1.00;;;;;;5093196;28;20968;-59
2021/05/27 10:35:49;;;;;;;2.33;2.13;;;19.10;1.00;;;;;;5112030;28;20414;-57
2021/05/27 10:38:17;;;;;;;1.90;1.80;;;19.20;1.00;;;;;;5103713;28;20209;-56
2021/05/27 10:40:48;;;;;;;2.37;1.80;;;19.30;1.00;;;;;;5113249;28;20428;-57
2021/05/27 10:43:15;;;;;;;4.20;2.47;;;19.10;1.00;;;;;;5113294;28;20439;-56
2021/05/27 10:46:00;;;;;;;2.80;1.90;;;18.50;1.00;;;;;;5113309;28;20466;-56
2021/05/27 10:48:30;;;;;;;2.10;1.87;;;18.40;1.00;;;;;;5112475;28;20436;-68
2021/05/27 10:51:08;;;;;;;2.37;2.17;;;18.20;1.00;;;;;;5103875;28;20410;-67
2021/05/27 10:53:36;;;;;;;3.07;1.77;;;18.20;1.00;;;;;;5095641;28;20396;-70
2021/05/27 10:56:12;;;;;;;3.20;2.40;;;18.50;1.00;;;;;;5092487;28;20550;-67
2021/05/27 10:58:52;;;;;;;8.00;2.50;;;18.30;1.00;;;;;;5092615;28;20428;-69
2021/05/27 11:01:41;;;;;;;2.50;1.50;;;18.50;1.00;;;;;;5101201;28;20505;-67
2021/05/27 11:04:28;;;;;;;3.60;2.00;;;18.70;1.00;;;;;;5099587;28;20464;-67
2021/05/27 11:07:19;;;;;;;1.63;1.33;;;18.60;1.00;;;;;;5104534;28;20443;-68
2021/05/27 11:09:48;;;;;;;2.73;2.40;;;18.80;1.00;;;;;;5108944;28;21019;-68
2021/05/27 11:12:25;;;;;;;1.83;1.70;;;18.90;1.00;;;;;;5112431;28;20789;-67
2021/05/27 11:14:51;;;;;;;2.90;1.57;;;18.70;1.00;;;;;;5094165;28;20425;-69
2021/05/27 11:17:18;;;;;;;2.63;1.53;;;18.30;1.00;;;;;;5109519;28;20456;-68
2021/05/27 11:25:35;;;;;;;3.50;1.50;;;18.90;1.00;;;;;;5048278;28;20589;-68
2021/05/27 11:28:01;;;;;;;4.27;2.17;;;18.80;1.00;;;;;;5048160;28;20831;-68
2021/05/27 11:30:37;;;;;;;4.63;1.70;;;18.90;1.00;;;;;;5074805;28;20858;-68
2021/05/27 11:33:12;;;;;;;5.03;2.03;;;18.40;1.00;;;;;;5090792;28;20423;-69
2021/05/27 11:35:37;;;;;;;3.03;1.87;;;17.40;1.00;;;;;;5091784;28;20446;-68
2021/05/27 11:38:07;;;;;;;3.80;1.47;;;16.30;1.00;;;;;;5111554;28;20960;-67
2021/05/27 11:40:35;;;;;;;2.40;2.03;;;15.90;1.00;;;;;;5101965;28;20218;-66
2021/05/27 11:43:01;;;;;;;2.77;2.20;;;16.20;1.00;;;;;;5111530;28;20944;-67
2021/05/27 11:45:28;;;;;;;1.70;1.60;;;16.80;1.00;;;;;;5110655;28;20463;-66
2021/05/27 11:48:19;;;;;;;1.70;1.60;;;17.40;1.00;;;;;;5110060;28;20470;-67
2021/05/27 11:50:45;;;;;;;2.07;1.70;;;17.90;1.00;;;;;;5101934;28;20432;-68
2021/05/27 11:53:11;;;;;;;1.77;1.50;;;18.10;1.00;;;;;;5090613;28;20949;-68
2021/05/27 11:55:38;;;;;;;1.80;1.70;;;17.80;1.00;;;;;;5110607;28;20448;-66
2021/05/27 11:58:05;;;;;;;3.73;2.23;;;17.10;1.00;;;;;;5110496;28;20521;-65
2021/05/27 12:00:32;;;;;;;2.20;2.00;;;16.50;1.00;;;;;;5111142;28;20444;-65
2021/05/27 12:03:00;;;;;;;2.13;1.93;;;16.00;1.00;;;;;;5093112;28;20419;-65
2021/05/27 12:05:27;;;;;;;2.40;2.20;;;15.50;1.00;;;;;;5110743;28;20488;-66
2021/05/27 12:08:05;;;;;;;2.43;2.23;;;15.50;1.00;;;;;;5110876;28;21004;-65
2021/05/27 12:10:47;;;;;;;3.20;2.90;;;15.70;1.00;;;;;;5111280;28;20447;-65
2021/05/27 12:13:21;;;;;;;2.27;2.13;;;16.20;1.00;;;;;;5072168;28;20447;-65
2021/05/27 12:15:48;;;;;;;2.77;2.27;;;16.60;1.00;;;;;;5110592;28;20435;-65
2021/05/27 12:18:18;;;;;;;2.87;2.67;;;17.10;1.00;;;;;;5107218;28;20446;-66
2021/05/27 12:20:50;;;;;;;2.40;2.23;;;17.10;1.00;;;;;;5092210;28;20474;-64
2021/05/27 12:23:18;;;;;;;3.77;2.23;;;17.40;1.00;;;;;;5110641;28;20902;-66
2021/05/27 12:25:52;;;;;;;2.73;2.47;;;17.90;1.00;;;;;;5110499;28;20899;-66
2021/05/27 12:28:20;;;;;;;2.60;2.00;;;18.30;1.00;;;;;;5109365;28;20406;-66
2021/05/27 12:30:53;;;;;;;2.40;2.20;;;18.30;1.00;;;;;;5109931;28;20860;-66
2021/05/27 12:33:24;;;;;;;2.47;2.27;;;18.10;1.00;;;;;;5109903;28;20444;-67
2021/05/27 12:35:50;;;;;;;2.50;2.30;;;18.10;1.00;;;;;;5091651;28;20488;-62
2021/05/27 12:38:28;;;;;;;2.80;2.60;;;18.00;1.00;;;;;;5104450;28;20757;-66
2021/05/27 12:41:05;;;;;;;4.60;2.60;;;18.10;1.00;;;;;;5109402;28;20454;-66
2021/05/27 12:43:41;;;;;;;1.80;1.70;;;18.00;1.00;;;;;;5092108;28;20480;-66
2021/05/27 12:46:12;;;;;;;1.73;1.60;;;18.10;1.00;;;;;;5107999;28;20935;-65
2021/05/27 12:48:53;;;;;;;2.30;2.10;;;18.00;1.00;;;;;;5109733;28;20444;-66
2021/05/27 12:51:21;;;;;;;1.40;1.30;;;17.60;1.00;;;;;;5107046;28;20426;-65
2021/05/27 12:53:46;;;;;;;1.53;1.43;;;17.10;1.00;;;;;;5110524;28;20503;-65
2021/05/27 12:56:22;;;;;;;1.20;1.00;;;16.20;1.00;;;;;;5110290;28;20459;-65
2021/05/27 12:59:06;;;;;;;1.20;1.03;;;15.40;1.00;;;;;;5092306;28;20209;-64
2021/05/27 13:01:36;;;;;;;1.70;1.50;;;14.70;1.00;;;;;;5110458;28;20443;-64
2021/05/27 13:04:18;;;;;;;1.20;0.80;;;14.30;1.00;;;;;;5110667;28;20418;-64
2021/05/27 13:06:44;;;;;;;1.20;0.73;;;14.30;1.00;;;;;;5098308;28;20432;-65
2021/05/27 13:09:15;;;;;;;0.30;0.30;;;14.20;1.00;;;;;;5109792;28;20445;-65
2021/05/27 13:11:45;;;;;;;0.60;0.57;;;14.00;1.00;;;;;;5108531;28;20518;-66
2021/05/27 13:14:18;;;;;;;0.50;0.50;;;14.00;1.00;;;;;;5090469;28;20471;-65